sensor_id;sensor_type;location;lat;lon;timestamp;pressure;altitude;pressure_sealevel;temperature;humidity
19831;BME280;10076;52.008;4.708;2023-04-28T00:01:15;101364.66;;;12.99;100.00
19831;BME280;10076;52.008;4.708;2023-04-28T00:03:40;101361.50;;;12.69;100.00
19831;BME280;10076;52.008;4.708;2023-04-28T00:06:06;101356.09;;;12.70;100.00
19831;BME280;10076;52.008;4.708;2023-04-28T00:08:31;101345.81;;;12.66;100.00
19831;BME280;10076;52.008;4.708;2023-04-28T00:10:57;101348.66;;;12.75;100.00
19831;BME280;10076;52.008;4.708;2023-04-28T00:13:22;101345.56;;;12.81;100.00
19831;BME280;10076;52.008;4.708;2023-04-28T00:15:51;101341.59;;;12.63;100.00
19831;BME280;10076;52.008;4.708;2023-04-28T00:18:18;101330.66;;;12.68;100.00
19831;BME280;10076;52.008;4.708;2023-04-28T00:20:43;101330.97;;;12.76;100.00
19831;BME280;10076;52.008;4.708;2023-04-28T00:23:09;101325.66;;;12.88;100.00
19831;BME280;10076;52.008;4.708;2023-04-28T00:25:34;101327.97;;;12.80;100.00
19831;BME280;10076;52.008;4.708;2023-04-28T00:28:00;101326.69;;;12.86;100.00
19831;BME280;10076;52.008;4.708;2023-04-28T00:30:26;101328.03;;;12.68;100.00
19831;BME280;10076;52.008;4.708;2023-04-28T00:32:51;101317.50;;;12.79;100.00
19831;BME280;10076;52.008;4.708;2023-04-28T00:35:17;101307.31;;;12.85;100.00
19831;BME280;10076;52.008;4.708;2023-04-28T00:37:42;101305.72;;;12.83;100.00
19831;BME280;10076;52.008;4.708;2023-04-28T00:40:08;101299.38;;;12.85;100.00
19831;BME280;10076;52.008;4.708;2023-04-28T00:42:33;101299.56;;;12.82;100.00
19831;BME280;10076;52.008;4.708;2023-04-28T00:44:58;101300.19;;;12.86;100.00
19831;BME280;10076;52.008;4.708;2023-04-28T00:47:30;101303.00;;;12.72;100.00
19831;BME280;10076;52.008;4.708;2023-04-28T00:49:57;101299.19;;;12.76;100.00
19831;BME280;10076;52.008;4.708;2023-04-28T00:52:22;101294.50;;;12.79;100.00
19831;BME280;10076;52.008;4.708;2023-04-28T00:54:48;101284.94;;;12.77;100.00
19831;BME280;10076;52.008;4.708;2023-04-28T00:57:14;101281.41;;;12.65;100.00
19831;BME280;10076;52.008;4.708;2023-04-28T00:59:39;101281.09;;;12.57;100.00
19831;BME280;10076;52.008;4.708;2023-04-28T01:02:05;101281.59;;;12.62;100.00
19831;BME280;10076;52.008;4.708;2023-04-28T01:04:32;101277.78;;;12.66;100.00
19831;BME280;10076;52.008;4.708;2023-04-28T01:06:59;101280.13;;;12.71;100.00
19831;BME280;10076;52.008;4.708;2023-04-28T01:09:25;101268.22;;;12.76;100.00
19831;BME280;10076;52.008;4.708;2023-04-28T01:11:50;101259.56;;;12.62;100.00
19831;BME280;10076;52.008;4.708;2023-04-28T01:14:15;101251.47;;;12.76;100.00
19831;BME280;10076;52.008;4.708;2023-04-28T01:16:40;101250.59;;;12.52;100.00
19831;BME280;10076;52.008;4.708;2023-04-28T01:19:07;101244.75;;;12.59;100.00
19831;BME280;10076;52.008;4.708;2023-04-28T01:21:36;101254.72;;;12.56;100.00
19831;BME280;10076;52.008;4.708;2023-04-28T01:24:04;101248.78;;;12.65;100.00
19831;BME280;10076;52.008;4.708;2023-04-28T01:26:30;101236.47;;;12.64;100.00
19831;BME280;10076;52.008;4.708;2023-04-28T01:28:55;101235.97;;;12.59;100.00
19831;BME280;10076;52.008;4.708;2023-04-28T01:31:20;101228.28;;;12.31;100.00
19831;BME280;10076;52.008;4.708;2023-04-28T01:33:45;101234.59;;;12.53;100.00
19831;BME280;10076;52.008;4.708;2023-04-28T01:36:11;101231.81;;;12.55;100.00
19831;BME280;10076;52.008;4.708;2023-04-28T01:38:36;101227.47;;;12.66;100.00
19831;BME280;10076;52.008;4.708;2023-04-28T01:41:01;101225.00;;;12.63;100.00
19831;BME280;10076;52.008;4.708;2023-04-28T01:43:27;101228.41;;;12.65;100.00
19831;BME280;10076;52.008;4.708;2023-04-28T01:45:53;101223.38;;;12.50;100.00
19831;BME280;10076;52.008;4.708;2023-04-28T01:48:18;101205.78;;;12.49;100.00
19831;BME280;10076;52.008;4.708;2023-04-28T01:50:43;101202.94;;;12.52;100.00
19831;BME280;10076;52.008;4.708;2023-04-28T01:53:09;101198.59;;;12.51;100.00
19831;BME280;10076;52.008;4.708;2023-04-28T01:55:34;101196.38;;;12.45;100.00
19831;BME280;10076;52.008;4.708;2023-04-28T01:58:00;101194.34;;;12.48;100.00
19831;BME280;10076;52.008;4.708;2023-04-28T02:00:25;101195.44;;;12.46;100.00
19831;BME280;10076;52.008;4.708;2023-04-28T02:02:51;101197.56;;;12.41;100.00
19831;BME280;10076;52.008;4.708;2023-04-28T02:05:16;101202.41;;;12.47;100.00
19831;BME280;10076;52.008;4.708;2023-04-28T02:07:42;101203.94;;;12.62;100.00
19831;BME280;10076;52.008;4.708;2023-04-28T02:10:07;101200.47;;;12.49;100.00
19831;BME280;10076;52.008;4.708;2023-04-28T02:12:33;101188.72;;;12.53;100.00
19831;BME280;10076;52.008;4.708;2023-04-28T02:14:58;101179.97;;;12.63;100.00
19831;BME280;10076;52.008;4.708;2023-04-28T02:17:23;101180.03;;;12.51;100.00
19831;BME280;10076;52.008;4.708;2023-04-28T02:19:54;101178.59;;;12.35;100.00
19831;BME280;10076;52.008;4.708;2023-04-28T02:22:20;101170.09;;;12.42;100.00
19831;BME280;10076;52.008;4.708;2023-04-28T02:24:45;101164.97;;;12.28;100.00
19831;BME280;10076;52.008;4.708;2023-04-28T02:27:10;101160.50;;;12.41;100.00
19831;BME280;10076;52.008;4.708;2023-04-28T02:29:36;101153.31;;;12.31;100.00
19831;BME280;10076;52.008;4.708;2023-04-28T02:32:01;101157.09;;;12.39;100.00
19831;BME280;10076;52.008;4.708;2023-04-28T02:34:28;101150.91;;;12.51;100.00
19831;BME280;10076;52.008;4.708;2023-04-28T02:36:53;101146.75;;;12.36;100.00
19831;BME280;10076;52.008;4.708;2023-04-28T02:39:19;101143.91;;;12.50;100.00
19831;BME280;10076;52.008;4.708;2023-04-28T02:41:46;101134.09;;;12.39;100.00
19831;BME280;10076;52.008;4.708;2023-04-28T02:44:11;101127.72;;;12.19;100.00
19831;BME280;10076;52.008;4.708;2023-04-28T02:46:37;101130.75;;;12.25;100.00
19831;BME280;10076;52.008;4.708;2023-04-28T02:49:02;101134.44;;;12.35;100.00
19831;BME280;10076;52.008;4.708;2023-04-28T02:51:27;101131.94;;;12.21;100.00
19831;BME280;10076;52.008;4.708;2023-04-28T02:53:53;101127.78;;;12.06;100.00
19831;BME280;10076;52.008;4.708;2023-04-28T02:56:18;101121.41;;;12.09;100.00
19831;BME280;10076;52.008;4.708;2023-04-28T02:58:43;101127.50;;;12.22;100.00
19831;BME280;10076;52.008;4.708;2023-04-28T03:01:08;101134.28;;;12.13;100.00
19831;BME280;10076;52.008;4.708;2023-04-28T03:03:34;101134.47;;;12.23;100.00
19831;BME280;10076;52.008;4.708;2023-04-28T03:05:59;101134.09;;;12.16;100.00
19831;BME280;10076;52.008;4.708;2023-04-28T03:08:24;101131.88;;;12.10;100.00
19831;BME280;10076;52.008;4.708;2023-04-28T03:10:50;101133.97;;;12.18;100.00
19831;BME280;10076;52.008;4.708;2023-04-28T03:13:15;101136.00;;;12.14;100.00
19831;BME280;10076;52.008;4.708;2023-04-28T03:15:40;101135.78;;;12.17;100.00
19831;BME280;10076;52.008;4.708;2023-04-28T03:18:06;101136.06;;;12.25;100.00
19831;BME280;10076;52.008;4.708;2023-04-28T03:20:31;101135.84;;;12.28;100.00
19831;BME280;10076;52.008;4.708;2023-04-28T03:22:56;101128.66;;;12.30;100.00
19831;BME280;10076;52.008;4.708;2023-04-28T03:25:22;101120.78;;;12.29;100.00
19831;BME280;10076;52.008;4.708;2023-04-28T03:27:47;101118.56;;;12.35;100.00
19831;BME280;10076;52.008;4.708;2023-04-28T03:30:12;101116.06;;;12.21;100.00
19831;BME280;10076;52.008;4.708;2023-04-28T03:32:39;101116.88;;;12.34;100.00
19831;BME280;10076;52.008;4.708;2023-04-28T03:35:04;101115.16;;;12.33;100.00
19831;BME280;10076;52.008;4.708;2023-04-28T03:37:29;101112.84;;;12.29;100.00
19831;BME280;10076;52.008;4.708;2023-04-28T03:39:55;101092.41;;;12.31;100.00
19831;BME280;10076;52.008;4.708;2023-04-28T03:42:20;101108.19;;;12.32;100.00
19831;BME280;10076;52.008;4.708;2023-04-28T03:44:45;101108.13;;;12.21;100.00
19831;BME280;10076;52.008;4.708;2023-04-28T03:47:11;101097.16;;;12.15;100.00
19831;BME280;10076;52.008;4.708;2023-04-28T03:49:37;101083.91;;;12.15;100.00
19831;BME280;10076;52.008;4.708;2023-04-28T03:52:02;101089.91;;;12.17;100.00
19831;BME280;10076;52.008;4.708;2023-04-28T03:54:28;101088.31;;;12.27;100.00
19831;BME280;10076;52.008;4.708;2023-04-28T03:56:53;101083.84;;;12.27;100.00
19831;BME280;10076;52.008;4.708;2023-04-28T03:59:19;101075.16;;;12.25;100.00
19831;BME280;10076;52.008;4.708;2023-04-28T04:01:45;101077.13;;;12.11;100.00
19831;BME280;10076;52.008;4.708;2023-04-28T04:04:10;101064.97;;;12.32;100.00
19831;BME280;10076;52.008;4.708;2023-04-28T04:06:35;101063.13;;;12.21;100.00
19831;BME280;10076;52.008;4.708;2023-04-28T04:09:00;101062.31;;;12.08;100.00
19831;BME280;10076;52.008;4.708;2023-04-28T04:11:26;101043.84;;;12.19;100.00
19831;BME280;10076;52.008;4.708;2023-04-28T04:13:51;101045.16;;;12.14;100.00
19831;BME280;10076;52.008;4.708;2023-04-28T04:16:16;101035.91;;;12.19;100.00
19831;BME280;10076;52.008;4.708;2023-04-28T04:18:42;101034.13;;;12.20;100.00
19831;BME280;10076;52.008;4.708;2023-04-28T04:21:07;101036.44;;;12.24;100.00
19831;BME280;10076;52.008;4.708;2023-04-28T04:23:32;101026.28;;;12.18;100.00
19831;BME280;10076;52.008;4.708;2023-04-28T04:25:58;101015.97;;;12.26;100.00
19831;BME280;10076;52.008;4.708;2023-04-28T04:28:23;101021.50;;;12.23;100.00
19831;BME280;10076;52.008;4.708;2023-04-28T04:30:48;101018.44;;;12.17;100.00
19831;BME280;10076;52.008;4.708;2023-04-28T04:33:14;101024.88;;;12.02;100.00
19831;BME280;10076;52.008;4.708;2023-04-28T04:35:39;101027.56;;;12.13;100.00
19831;BME280;10076;52.008;4.708;2023-04-28T04:38:04;101029.59;;;12.09;100.00
19831;BME280;10076;52.008;4.708;2023-04-28T04:40:31;101025.22;;;12.21;100.00
19831;BME280;10076;52.008;4.708;2023-04-28T04:42:56;101031.22;;;12.23;100.00
19831;BME280;10076;52.008;4.708;2023-04-28T04:45:22;101037.44;;;12.34;100.00
19831;BME280;10076;52.008;4.708;2023-04-28T04:47:47;101042.09;;;12.31;100.00
19831;BME280;10076;52.008;4.708;2023-04-28T04:50:12;101049.25;;;12.41;100.00
19831;BME280;10076;52.008;4.708;2023-04-28T04:52:37;101053.78;;;12.28;100.00
19831;BME280;10076;52.008;4.708;2023-04-28T04:55:03;101050.03;;;12.31;100.00
19831;BME280;10076;52.008;4.708;2023-04-28T04:57:29;101037.44;;;12.34;100.00
19831;BME280;10076;52.008;4.708;2023-04-28T04:59:54;101038.66;;;12.41;100.00
19831;BME280;10076;52.008;4.708;2023-04-28T05:02:20;101034.13;;;12.54;100.00
19831;BME280;10076;52.008;4.708;2023-04-28T05:04:45;101039.19;;;12.57;100.00
19831;BME280;10076;52.008;4.708;2023-04-28T05:07:10;101040.50;;;12.51;100.00
19831;BME280;10076;52.008;4.708;2023-04-28T05:09:36;101040.91;;;12.35;100.00
19831;BME280;10076;52.008;4.708;2023-04-28T05:12:02;101054.56;;;12.41;100.00
19831;BME280;10076;52.008;4.708;2023-04-28T05:14:27;101058.63;;;12.34;100.00
19831;BME280;10076;52.008;4.708;2023-04-28T05:16:55;101060.84;;;12.28;100.00
19831;BME280;10076;52.008;4.708;2023-04-28T05:19:21;101048.22;;;12.31;100.00
19831;BME280;10076;52.008;4.708;2023-04-28T05:21:46;101037.88;;;12.28;100.00
19831;BME280;10076;52.008;4.708;2023-04-28T05:24:13;101047.53;;;12.29;100.00
19831;BME280;10076;52.008;4.708;2023-04-28T05:26:38;101048.09;;;12.22;100.00
19831;BME280;10076;52.008;4.708;2023-04-28T05:29:03;101044.97;;;12.04;100.00
19831;BME280;10076;52.008;4.708;2023-04-28T05:31:29;101044.84;;;12.06;100.00
19831;BME280;10076;52.008;4.708;2023-04-28T05:33:54;101030.06;;;12.03;100.00
19831;BME280;10076;52.008;4.708;2023-04-28T05:36:19;101032.44;;;11.95;100.00
19831;BME280;10076;52.008;4.708;2023-04-28T05:38:45;101031.38;;;11.85;100.00
19831;BME280;10076;52.008;4.708;2023-04-28T05:41:10;101032.94;;;12.00;100.00
19831;BME280;10076;52.008;4.708;2023-04-28T05:43:35;101025.78;;;11.90;100.00
19831;BME280;10076;52.008;4.708;2023-04-28T05:46:01;101016.59;;;11.83;100.00
19831;BME280;10076;52.008;4.708;2023-04-28T05:48:26;101003.47;;;11.81;100.00
19831;BME280;10076;52.008;4.708;2023-04-28T05:50:52;101005.06;;;11.84;100.00
19831;BME280;10076;52.008;4.708;2023-04-28T05:53:17;101012.66;;;11.88;100.00
19831;BME280;10076;52.008;4.708;2023-04-28T05:55:42;101006.94;;;11.82;100.00
19831;BME280;10076;52.008;4.708;2023-04-28T05:58:08;101007.06;;;11.80;100.00
19831;BME280;10076;52.008;4.708;2023-04-28T06:00:33;100999.75;;;11.84;100.00
19831;BME280;10076;52.008;4.708;2023-04-28T06:02:59;101000.16;;;11.90;100.00
19831;BME280;10076;52.008;4.708;2023-04-28T06:05:25;100994.19;;;11.99;100.00
19831;BME280;10076;52.008;4.708;2023-04-28T06:07:50;101001.69;;;12.05;100.00
19831;BME280;10076;52.008;4.708;2023-04-28T06:10:15;100999.38;;;12.24;100.00
19831;BME280;10076;52.008;4.708;2023-04-28T06:12:41;101003.91;;;12.22;100.00
19831;BME280;10076;52.008;4.708;2023-04-28T06:15:06;101008.94;;;12.48;100.00
19831;BME280;10076;52.008;4.708;2023-04-28T06:17:32;101013.94;;;12.64;100.00
19831;BME280;10076;52.008;4.708;2023-04-28T06:19:58;101009.16;;;12.80;100.00
19831;BME280;10076;52.008;4.708;2023-04-28T06:22:24;101007.63;;;12.88;100.00
19831;BME280;10076;52.008;4.708;2023-04-28T06:24:50;101004.63;;;12.93;100.00
19831;BME280;10076;52.008;4.708;2023-04-28T06:27:16;100994.78;;;12.71;100.00
19831;BME280;10076;52.008;4.708;2023-04-28T06:29:41;101005.03;;;12.65;100.00
19831;BME280;10076;52.008;4.708;2023-04-28T06:32:06;101015.66;;;12.76;100.00
19831;BME280;10076;52.008;4.708;2023-04-28T06:34:32;101010.09;;;12.79;100.00
19831;BME280;10076;52.008;4.708;2023-04-28T06:36:58;101010.75;;;12.93;100.00
19831;BME280;10076;52.008;4.708;2023-04-28T06:39:23;101005.59;;;13.13;100.00
19831;BME280;10076;52.008;4.708;2023-04-28T06:41:48;100999.34;;;13.14;100.00
19831;BME280;10076;52.008;4.708;2023-04-28T06:44:14;100984.63;;;13.21;100.00
19831;BME280;10076;52.008;4.708;2023-04-28T06:46:39;100984.84;;;13.29;100.00
19831;BME280;10076;52.008;4.708;2023-04-28T06:49:04;100990.78;;;13.22;100.00
19831;BME280;10076;52.008;4.708;2023-04-28T06:51:30;100990.88;;;13.31;100.00
19831;BME280;10076;52.008;4.708;2023-04-28T06:53:57;100983.75;;;13.54;100.00
19831;BME280;10076;52.008;4.708;2023-04-28T06:56:22;100975.75;;;13.76;100.00
19831;BME280;10076;52.008;4.708;2023-04-28T06:58:48;100976.63;;;13.54;100.00
19831;BME280;10076;52.008;4.708;2023-04-28T07:01:13;100973.38;;;13.51;100.00
19831;BME280;10076;52.008;4.708;2023-04-28T07:03:39;100976.75;;;13.53;100.00
19831;BME280;10076;52.008;4.708;2023-04-28T07:06:04;100988.81;;;13.46;100.00
19831;BME280;10076;52.008;4.708;2023-04-28T07:08:30;100983.53;;;13.35;100.00
19831;BME280;10076;52.008;4.708;2023-04-28T07:10:56;100990.41;;;13.26;100.00
19831;BME280;10076;52.008;4.708;2023-04-28T07:13:21;100992.59;;;13.32;100.00
19831;BME280;10076;52.008;4.708;2023-04-28T07:15:46;100992.34;;;13.24;100.00
19831;BME280;10076;52.008;4.708;2023-04-28T07:18:12;100995.47;;;13.08;100.00
19831;BME280;10076;52.008;4.708;2023-04-28T07:20:37;100999.81;;;13.19;100.00
19831;BME280;10076;52.008;4.708;2023-04-28T07:23:02;100997.41;;;13.38;100.00
19831;BME280;10076;52.008;4.708;2023-04-28T07:25:28;101000.28;;;13.46;100.00
19831;BME280;10076;52.008;4.708;2023-04-28T07:27:53;101009.44;;;13.42;100.00
19831;BME280;10076;52.008;4.708;2023-04-28T07:30:19;101005.34;;;13.06;100.00
19831;BME280;10076;52.008;4.708;2023-04-28T07:32:44;101001.03;;;13.15;100.00
19831;BME280;10076;52.008;4.708;2023-04-28T07:35:09;101005.38;;;13.27;100.00
19831;BME280;10076;52.008;4.708;2023-04-28T07:37:36;101004.91;;;13.22;100.00
19831;BME280;10076;52.008;4.708;2023-04-28T07:40:01;101006.78;;;13.42;100.00
19831;BME280;10076;52.008;4.708;2023-04-28T07:42:26;101009.91;;;13.47;100.00
19831;BME280;10076;52.008;4.708;2023-04-28T07:44:52;101011.59;;;13.59;100.00
19831;BME280;10076;52.008;4.708;2023-04-28T07:47:17;101017.13;;;13.78;100.00
19831;BME280;10076;52.008;4.708;2023-04-28T07:49:42;101011.56;;;13.70;100.00
19831;BME280;10076;52.008;4.708;2023-04-28T07:52:08;101008.69;;;13.73;100.00
19831;BME280;10076;52.008;4.708;2023-04-28T07:54:34;101003.63;;;13.70;100.00
19831;BME280;10076;52.008;4.708;2023-04-28T07:56:59;100990.81;;;13.75;100.00
19831;BME280;10076;52.008;4.708;2023-04-28T07:59:25;101000.44;;;13.87;100.00
19831;BME280;10076;52.008;4.708;2023-04-28T08:01:50;100997.78;;;13.98;100.00
19831;BME280;10076;52.008;4.708;2023-04-28T08:04:16;101001.44;;;13.86;100.00
19831;BME280;10076;52.008;4.708;2023-04-28T08:06:41;100998.50;;;13.89;100.00
19831;BME280;10076;52.008;4.708;2023-04-28T08:09:07;101001.13;;;14.00;100.00
19831;BME280;10076;52.008;4.708;2023-04-28T08:11:33;101000.88;;;14.14;100.00
19831;BME280;10076;52.008;4.708;2023-04-28T08:13:59;101003.63;;;14.23;100.00
19831;BME280;10076;52.008;4.708;2023-04-28T08:16:27;101000.56;;;14.28;100.00
19831;BME280;10076;52.008;4.708;2023-04-28T08:18:53;101005.88;;;14.28;100.00
19831;BME280;10076;52.008;4.708;2023-04-28T08:21:18;101005.28;;;14.35;100.00
19831;BME280;10076;52.008;4.708;2023-04-28T08:23:44;101006.81;;;14.38;100.00
19831;BME280;10076;52.008;4.708;2023-04-28T08:26:10;101004.75;;;14.41;100.00
19831;BME280;10076;52.008;4.708;2023-04-28T08:28:36;101005.81;;;14.50;100.00
19831;BME280;10076;52.008;4.708;2023-04-28T08:31:01;101008.25;;;14.42;100.00
19831;BME280;10076;52.008;4.708;2023-04-28T08:33:26;101006.81;;;14.38;100.00
19831;BME280;10076;52.008;4.708;2023-04-28T08:35:54;101013.72;;;14.60;100.00
19831;BME280;10076;52.008;4.708;2023-04-28T08:38:19;101007.00;;;14.46;100.00
19831;BME280;10076;52.008;4.708;2023-04-28T08:40:46;101002.16;;;14.50;100.00
19831;BME280;10076;52.008;4.708;2023-04-28T08:43:11;101006.84;;;14.58;100.00
19831;BME280;10076;52.008;4.708;2023-04-28T08:45:41;101003.91;;;14.61;100.00
19831;BME280;10076;52.008;4.708;2023-04-28T08:48:19;101000.59;;;14.48;100.00
19831;BME280;10076;52.008;4.708;2023-04-28T08:50:51;101007.94;;;14.55;100.00
19831;BME280;10076;52.008;4.708;2023-04-28T08:53:24;101001.19;;;14.51;100.00
19831;BME280;10076;52.008;4.708;2023-04-28T08:55:56;101003.66;;;14.64;100.00
19831;BME280;10076;52.008;4.708;2023-04-28T08:58:26;101000.59;;;14.68;100.00
19831;BME280;10076;52.008;4.708;2023-04-28T09:00:54;100996.31;;;14.77;100.00
19831;BME280;10076;52.008;4.708;2023-04-28T09:03:19;100994.94;;;15.03;100.00
19831;BME280;10076;52.008;4.708;2023-04-28T09:05:45;101001.09;;;15.03;100.00
19831;BME280;10076;52.008;4.708;2023-04-28T09:08:10;101000.34;;;15.21;100.00
19831;BME280;10076;52.008;4.708;2023-04-28T09:10:36;100988.34;;;15.27;100.00
19831;BME280;10076;52.008;4.708;2023-04-28T09:13:02;100985.19;;;15.42;100.00
19831;BME280;10076;52.008;4.708;2023-04-28T09:15:36;100990.41;;;15.53;100.00
19831;BME280;10076;52.008;4.708;2023-04-28T09:18:03;100980.19;;;15.58;100.00
19831;BME280;10076;52.008;4.708;2023-04-28T09:20:30;100974.22;;;15.85;100.00
19831;BME280;10076;52.008;4.708;2023-04-28T09:23:12;100974.09;;;15.77;100.00
19831;BME280;10076;52.008;4.708;2023-04-28T09:25:37;100985.38;;;15.60;100.00
19831;BME280;10076;52.008;4.708;2023-04-28T09:28:21;100978.66;;;15.56;100.00
19831;BME280;10076;52.008;4.708;2023-04-28T09:30:47;100979.84;;;15.82;100.00
19831;BME280;10076;52.008;4.708;2023-04-28T09:33:13;100974.34;;;15.74;100.00
19831;BME280;10076;52.008;4.708;2023-04-28T09:35:39;100978.53;;;15.67;100.00
19831;BME280;10076;52.008;4.708;2023-04-28T09:38:05;100976.31;;;15.62;100.00
19831;BME280;10076;52.008;4.708;2023-04-28T09:40:30;100980.06;;;15.50;100.00
19831;BME280;10076;52.008;4.708;2023-04-28T09:42:56;100975.28;;;15.44;100.00
19831;BME280;10076;52.008;4.708;2023-04-28T09:45:22;100978.06;;;15.52;100.00
19831;BME280;10076;52.008;4.708;2023-04-28T09:47:48;100977.28;;;15.61;100.00
19831;BME280;10076;52.008;4.708;2023-04-28T09:50:15;100983.16;;;15.65;100.00
19831;BME280;10076;52.008;4.708;2023-04-28T09:52:43;100973.78;;;15.70;100.00
19831;BME280;10076;52.008;4.708;2023-04-28T09:55:11;100977.53;;;15.58;100.00
19831;BME280;10076;52.008;4.708;2023-04-28T09:57:37;100972.81;;;15.81;100.00
19831;BME280;10076;52.008;4.708;2023-04-28T10:00:04;100985.59;;;15.96;100.00
19831;BME280;10076;52.008;4.708;2023-04-28T10:02:31;100981.66;;;15.90;100.00
19831;BME280;10076;52.008;4.708;2023-04-28T10:04:57;100982.78;;;15.88;100.00
19831;BME280;10076;52.008;4.708;2023-04-28T10:07:22;100985.88;;;15.93;100.00
19831;BME280;10076;52.008;4.708;2023-04-28T10:09:49;100977.59;;;16.15;100.00
19831;BME280;10076;52.008;4.708;2023-04-28T10:12:18;100984.78;;;16.14;100.00
19831;BME280;10076;52.008;4.708;2023-04-28T10:14:45;100987.75;;;16.40;100.00
19831;BME280;10076;52.008;4.708;2023-04-28T10:17:12;100993.06;;;16.59;100.00
19831;BME280;10076;52.008;4.708;2023-04-28T10:19:40;100987.34;;;16.44;100.00
19831;BME280;10076;52.008;4.708;2023-04-28T10:25:35;100979.72;;;16.21;100.00
19831;BME280;10076;52.008;4.708;2023-04-28T10:27:53;100982.94;;;16.24;100.00
19831;BME280;10076;52.008;4.708;2023-04-28T10:30:21;100988.03;;;16.27;100.00
19831;BME280;10076;52.008;4.708;2023-04-28T10:32:47;100992.97;;;16.32;100.00
19831;BME280;10076;52.008;4.708;2023-04-28T10:43:14;101001.91;;;16.21;100.00
19831;BME280;10076;52.008;4.708;2023-04-28T10:56:16;101005.94;;;15.97;100.00
19831;BME280;10076;52.008;4.708;2023-04-28T10:58:52;101000.31;;;16.00;100.00
19831;BME280;10076;52.008;4.708;2023-04-28T11:06:21;101018.22;;;15.70;100.00
19831;BME280;10076;52.008;4.708;2023-04-28T11:08:49;101013.50;;;15.43;100.00
19831;BME280;10076;52.008;4.708;2023-04-28T11:11:20;101014.06;;;15.47;100.00
19831;BME280;10076;52.008;4.708;2023-04-28T11:13:47;101017.31;;;15.60;100.00
19831;BME280;10076;52.008;4.708;2023-04-28T11:16:21;101012.59;;;15.73;100.00
19831;BME280;10076;52.008;4.708;2023-04-28T11:18:51;101010.91;;;15.72;100.00
19831;BME280;10076;52.008;4.708;2023-04-28T11:21:17;101009.38;;;15.79;100.00
19831;BME280;10076;52.008;4.708;2023-04-28T11:23:43;101011.38;;;15.77;100.00
19831;BME280;10076;52.008;4.708;2023-04-28T11:26:09;101004.19;;;15.68;100.00
19831;BME280;10076;52.008;4.708;2023-04-28T11:28:34;101010.97;;;15.51;100.00
19831;BME280;10076;52.008;4.708;2023-04-28T11:31:12;101018.56;;;15.56;100.00
19831;BME280;10076;52.008;4.708;2023-04-28T11:33:38;101020.63;;;15.43;100.00
19831;BME280;10076;52.008;4.708;2023-04-28T11:36:04;101020.84;;;15.30;100.00
19831;BME280;10076;52.008;4.708;2023-04-28T11:38:42;101029.84;;;15.39;100.00
19831;BME280;10076;52.008;4.708;2023-04-28T11:41:07;101031.94;;;15.35;100.00
19831;BME280;10076;52.008;4.708;2023-04-28T11:43:32;101027.53;;;15.55;100.00
19831;BME280;10076;52.008;4.708;2023-04-28T11:45:58;101034.00;;;15.62;100.00
19831;BME280;10076;52.008;4.708;2023-04-28T11:48:23;101040.84;;;15.55;100.00
19831;BME280;10076;52.008;4.708;2023-04-28T11:50:48;101040.78;;;15.45;100.00
19831;BME280;10076;52.008;4.708;2023-04-28T11:53:13;101035.09;;;15.50;100.00
19831;BME280;10076;52.008;4.708;2023-04-28T11:55:39;101046.84;;;15.47;100.00
19831;BME280;10076;52.008;4.708;2023-04-28T11:58:22;101042.22;;;15.49;100.00
19831;BME280;10076;52.008;4.708;2023-04-28T12:01:11;101046.16;;;15.55;100.00
19831;BME280;10076;52.008;4.708;2023-04-28T12:03:42;101040.53;;;15.48;100.00
19831;BME280;10076;52.008;4.708;2023-04-28T12:06:07;101051.91;;;15.60;100.00
19831;BME280;10076;52.008;4.708;2023-04-28T12:08:33;101044.66;;;15.62;100.00
19831;BME280;10076;52.008;4.708;2023-04-28T12:11:08;101042.56;;;15.65;100.00
19831;BME280;10076;52.008;4.708;2023-04-28T12:13:35;101051.31;;;15.77;100.00
19831;BME280;10076;52.008;4.708;2023-04-28T12:16:01;101049.88;;;15.73;100.00
19831;BME280;10076;52.008;4.708;2023-04-28T12:18:30;101056.09;;;15.83;100.00
19831;BME280;10076;52.008;4.708;2023-04-28T12:20:55;101051.63;;;15.92;100.00
19831;BME280;10076;52.008;4.708;2023-04-28T12:23:31;101059.47;;;15.94;100.00
19831;BME280;10076;52.008;4.708;2023-04-28T12:25:56;101058.78;;;16.01;100.00
19831;BME280;10076;52.008;4.708;2023-04-28T12:28:23;101055.19;;;15.73;100.00
19831;BME280;10076;52.008;4.708;2023-04-28T12:30:48;101064.09;;;15.83;100.00
19831;BME280;10076;52.008;4.708;2023-04-28T12:33:27;101064.19;;;15.81;100.00
19831;BME280;10076;52.008;4.708;2023-04-28T12:35:54;101069.13;;;15.86;100.00
19831;BME280;10076;52.008;4.708;2023-04-28T12:38:20;101061.59;;;16.00;100.00
19831;BME280;10076;52.008;4.708;2023-04-28T12:40:46;101062.00;;;16.05;100.00
19831;BME280;10076;52.008;4.708;2023-04-28T12:43:11;101066.59;;;15.84;100.00
19831;BME280;10076;52.008;4.708;2023-04-28T12:45:36;101062.28;;;15.92;100.00
19831;BME280;10076;52.008;4.708;2023-04-28T12:48:01;101062.34;;;15.72;100.00
19831;BME280;10076;52.008;4.708;2023-04-28T12:50:27;101064.00;;;15.64;100.00
19831;BME280;10076;52.008;4.708;2023-04-28T12:52:56;101068.00;;;15.49;100.00
19831;BME280;10076;52.008;4.708;2023-04-28T12:55:22;101066.19;;;15.49;100.00
19831;BME280;10076;52.008;4.708;2023-04-28T12:57:47;101073.31;;;15.49;100.00
19831;BME280;10076;52.008;4.708;2023-04-28T13:00:12;101070.22;;;15.44;100.00
19831;BME280;10076;52.008;4.708;2023-04-28T13:02:42;101081.09;;;15.31;100.00